Los Posos, Valles Caldera, New Mexico Weather observations

Data are for 10 minute period ending at time listed.
 Day   Time   Solar   Ave.   Ave.  Ave.  Vector  Max.   Baro.   Total    
  of    of     Rad.   Air    Rel.  Wind   Wind   Wind  Press.  Precip.   
Year   Day            Temp.  Hum.  Speed  Dir.   Gust                    
2014   (MST)  Kw/m2    F      %     mph   deg.    mph    mb.     in.     
-------------------------------------------------------------------------
 353    0:00   0.00   14.4    92    0.9   114     3.0   99999.0    0.00 
 353    0:10   0.00   13.4    91    1.0   346     3.6   99999.0    0.00 
 353    0:20   0.00   13.9    92    2.1    50     5.4   99999.0    0.00 
 353    0:30   0.00   14.7    91    2.3    81     4.8   99999.0    0.00 
 353    0:40   0.00   14.3    91    1.7   358     4.2   99999.0    0.00 
 353    0:50   0.00   12.8    90    1.9   356     4.2   99999.0    0.00 
 353    1:00   0.00   14.1    92    0.7    12     2.4   99999.0    0.00 
 353    1:10   0.00   15.4    92    3.0    19     5.4   99999.0    0.00 
 353    1:20   0.00   17.3    92    4.7   324     9.6   99999.0    0.00 
 353    1:30   0.00   19.0    89    5.0   329     9.6   99999.0    0.00 
 353    1:40   0.00   17.4    86    2.3    51     6.0   99999.0    0.00 
 353    1:50   0.00   15.6    87    0.5   317     2.4   99999.0    0.00 
 353    2:00   0.00   13.2    85    1.5   349     4.2   99999.0    0.00 
 353    2:10   0.00   10.4    88    1.7   255     3.0   99999.0    0.00 
 353    2:20   0.00    9.9    90    2.5   273     5.4   99999.0    0.00 
 353    2:30   0.00    7.2    87    0.0   288     1.2   99999.0    0.00 
 353    2:40   0.00    6.8    90    1.3   242     3.0   99999.0    0.00 
 353    2:50   0.00    6.5    90    1.2   247     2.4   99999.0    0.00 
 353    3:00   0.00    6.5    90    2.1   246     4.8   99999.0    0.00 
 353    3:10   0.00    4.9    88    0.4    58     3.0   99999.0    0.00 
 353    3:20   0.00    4.0    89    0.1   239     1.8   99999.0    0.00 
 353    3:30   0.00    4.4    90    0.0     0     0.0   99999.0    0.00 
 353    3:40   0.00    4.6    90    0.1   262     1.8   99999.0    0.00 
 353    3:50   0.00    5.1    91    0.0     0     0.0   99999.0    0.00 
 353    4:00   0.00    4.6    89    0.0     0     0.0   99999.0    0.00 
 353    4:10   0.00    4.4    89    0.0     0     0.0   99999.0    0.00 
 353    4:20   0.00    3.6    89    0.0     0     0.0   99999.0    0.00 
 353    4:30   0.00    4.4    91    0.0   276     1.8   99999.0    0.00 
 353    4:40   0.00    4.0    89    0.0   318     1.2   99999.0    0.00 
 353    4:50   0.00    4.4    90    0.0     0     0.0   99999.0    0.00 
 353    5:00   0.00    4.5    89    0.0     0     0.0   99999.0    0.00 
 353    5:10   0.00    4.4    88    0.0     0     0.0   99999.0    0.00 
 353    5:20   0.00    4.8    89    0.0     0     0.0   99999.0    0.00 
 353    5:30   0.00    4.5    88    0.0     0     0.0   99999.0    0.00 
 353    5:40   0.00    3.8    88    0.0     0     0.0   99999.0    0.00 
 353    5:50   0.00    3.8    88    0.0     0     0.0   99999.0    0.00 
 353    6:00   0.00    4.0    88    0.0     0     0.0   99999.0    0.00 
 353    6:10   0.00    4.2    88    0.0     0     0.0   99999.0    0.00 
 353    6:20   0.00    4.2    88    0.0     0     0.0   99999.0    0.00 
 353    6:30   0.00    3.3    87    0.0     0     0.0   99999.0    0.00 
 353    6:40   0.00    2.4    87    0.0     0     0.0   99999.0    0.00 
 353    6:50   0.00    3.1    88    0.0     0     0.0   99999.0    0.00 
 353    7:00   0.00    3.2    88    0.0     0     0.0   99999.0    0.00 
 353    7:10   0.00    2.3    86    0.0     0     0.0   99999.0    0.00 
 353    7:20   0.00    1.9    87    0.0     0     0.0   99999.0    0.00 
 353    7:30   0.00    1.5    87    0.0     0     0.0   99999.0    0.00 
 353    7:40   0.00    2.4    87    0.0     0     0.0   99999.0    0.00 
 353    7:50   0.00    3.1    88    0.0     0     0.0   99999.0    0.00 
 353    8:00   0.01    3.5    87    0.0     0     0.0   99999.0    0.00 
 353    8:10   0.01    2.0    85    0.0     0     0.0   99999.0    0.00 
 353    8:20   0.01    1.4    86    0.0     0     0.0   99999.0    0.00 
 353    8:30   0.08    6.4    90    0.0     0     0.0   99999.0    0.00 
 353    8:40   0.09   13.5    88    0.0     0     0.0   99999.0    0.00 
 353    8:50   0.10   17.4    86    0.0     0     0.0   99999.0    0.00 
 353    9:00   0.11   23.9    81    0.0     0     0.0   99999.0    0.00 
 353    9:10   0.12   25.9    71    0.2    56     2.4   99999.0    0.00 
 353    9:20   0.13   28.8    69    2.0    54     3.6   99999.0    0.00 
 353    9:30   0.14   30.5    61    2.7    57     4.2   99999.0    0.00 
 353    9:40   0.15   31.9    56    3.1    60     4.2   99999.0    0.00 
 353    9:50   0.15   31.6    53    2.2   330     7.2   99999.0    0.00 
 353   10:00   0.16   28.7    56    5.0   307     8.4   99999.0    0.00 
 353   10:10   0.17   28.5    56    5.8   303    10.8   99999.0    0.00 
 353   10:20   0.17   29.0    53    4.8   283     8.4   99999.0    0.00 
 353   10:30   0.18   29.7    52    4.6   277     9.0   99999.0    0.00 
 353   10:40   0.19   31.0    48    4.2   263     7.8   99999.0    0.00 
 353   10:50   0.20   32.2    45    4.6   302     9.6   99999.0    0.00 
 353   11:00   0.21   33.4    42    4.9   308    10.8   99999.0    0.00 
 353   11:10   0.22   34.9    39    5.1   324    11.3   99999.0    0.00 
 353   11:20   0.23   34.9    38    6.0   312    10.8   99999.0    0.00 
 353   11:30   0.23   36.2    34    7.6   335    11.3   99999.0    0.00 
 353   11:40   0.23   38.0    32    8.1   337    13.1   99999.0    0.00 
 353   11:50   0.23   38.2    32    5.7   330    11.3   99999.0    0.00 
 353   12:00   0.23   40.3    30    5.4     5    10.2   99999.0    0.00 
 353   12:10   0.24   38.6    30    6.8   329    11.9   99999.0    0.00 
 353   12:20   0.24   36.6    33    6.8   320    11.9   99999.0    0.00 
 353   12:30   0.24   36.9    33    7.0   328    13.1   99999.0    0.00 
 353   12:40   0.24   37.3    34    8.0   321    16.1   99999.0    0.00 
 353   12:50   0.23   36.5    36    5.7   322    11.9   99999.0    0.00 
 353   13:00   0.22   37.2    36    6.1   320    11.3   99999.0    0.00 
 353   13:10   0.21   38.5    34    5.9   329    11.9   99999.0    0.00 
 353   13:20   0.21   35.4    36    5.4   259    11.3   99999.0    0.00 

Return to Los Posos, Valles Caldera graphs page.


Western Regional Climate Center,wrcc@dri.edu